sensor_id;sensor_type;location;lat;lon;timestamp;temperature;humidity
33825;DHT22;20127;48.962;8.342;2023-07-31T00:01:54;17.20;99.90
33825;DHT22;20127;48.962;8.342;2023-07-31T00:04:56;17.10;99.90
33825;DHT22;20127;48.962;8.342;2023-07-31T00:07:58;17.00;99.90
33825;DHT22;20127;48.962;8.342;2023-07-31T00:10:59;16.90;99.90
33825;DHT22;20127;48.962;8.342;2023-07-31T00:14:02;16.80;99.90
33825;DHT22;20127;48.962;8.342;2023-07-31T00:17:05;16.80;99.90
33825;DHT22;20127;48.962;8.342;2023-07-31T00:20:07;16.70;99.90
33825;DHT22;20127;48.962;8.342;2023-07-31T00:23:09;16.80;99.90
33825;DHT22;20127;48.962;8.342;2023-07-31T00:26:11;16.80;99.90
33825;DHT22;20127;48.962;8.342;2023-07-31T00:29:14;16.70;99.90
33825;DHT22;20127;48.962;8.342;2023-07-31T00:32:15;16.70;99.90
33825;DHT22;20127;48.962;8.342;2023-07-31T00:35:17;16.70;99.90
33825;DHT22;20127;48.962;8.342;2023-07-31T00:38:18;16.70;99.90
33825;DHT22;20127;48.962;8.342;2023-07-31T00:41:20;16.70;99.90
33825;DHT22;20127;48.962;8.342;2023-07-31T00:44:23;16.70;99.90
33825;DHT22;20127;48.962;8.342;2023-07-31T00:47:25;16.60;99.90
33825;DHT22;20127;48.962;8.342;2023-07-31T00:50:28;16.60;99.90
33825;DHT22;20127;48.962;8.342;2023-07-31T00:53:30;16.60;99.90
33825;DHT22;20127;48.962;8.342;2023-07-31T00:56:32;16.60;99.90
33825;DHT22;20127;48.962;8.342;2023-07-31T00:59:36;16.50;99.90
33825;DHT22;20127;48.962;8.342;2023-07-31T01:02:37;16.50;99.90
33825;DHT22;20127;48.962;8.342;2023-07-31T01:05:43;16.50;99.90
33825;DHT22;20127;48.962;8.342;2023-07-31T01:08:56;16.50;99.90
33825;DHT22;20127;48.962;8.342;2023-07-31T01:12:02;16.50;99.90
33825;DHT22;20127;48.962;8.342;2023-07-31T01:15:07;16.50;99.90
33825;DHT22;20127;48.962;8.342;2023-07-31T01:18:11;16.50;99.90
33825;DHT22;20127;48.962;8.342;2023-07-31T01:21:25;16.50;99.90
33825;DHT22;20127;48.962;8.342;2023-07-31T01:24:37;16.40;99.90
33825;DHT22;20127;48.962;8.342;2023-07-31T01:27:47;16.40;99.90
33825;DHT22;20127;48.962;8.342;2023-07-31T01:30:50;16.40;99.90
33825;DHT22;20127;48.962;8.342;2023-07-31T01:33:53;16.40;99.90
33825;DHT22;20127;48.962;8.342;2023-07-31T01:36:56;16.40;99.90
33825;DHT22;20127;48.962;8.342;2023-07-31T01:39:58;16.30;99.90
33825;DHT22;20127;48.962;8.342;2023-07-31T01:43:01;16.30;99.90
33825;DHT22;20127;48.962;8.342;2023-07-31T01:46:03;16.30;99.90
33825;DHT22;20127;48.962;8.342;2023-07-31T01:49:06;16.40;99.90
33825;DHT22;20127;48.962;8.342;2023-07-31T01:52:07;16.40;99.90
33825;DHT22;20127;48.962;8.342;2023-07-31T01:55:09;16.30;99.90
33825;DHT22;20127;48.962;8.342;2023-07-31T01:58:12;16.30;99.90
33825;DHT22;20127;48.962;8.342;2023-07-31T02:01:14;16.30;99.90
33825;DHT22;20127;48.962;8.342;2023-07-31T02:04:15;16.30;99.90
33825;DHT22;20127;48.962;8.342;2023-07-31T02:07:17;16.20;99.90
33825;DHT22;20127;48.962;8.342;2023-07-31T02:10:19;16.20;99.90
33825;DHT22;20127;48.962;8.342;2023-07-31T02:13:22;16.20;99.90
33825;DHT22;20127;48.962;8.342;2023-07-31T02:16:23;16.10;99.90
33825;DHT22;20127;48.962;8.342;2023-07-31T02:19:25;16.10;99.90
33825;DHT22;20127;48.962;8.342;2023-07-31T02:22:27;16.10;99.90
33825;DHT22;20127;48.962;8.342;2023-07-31T02:25:28;16.00;99.90
33825;DHT22;20127;48.962;8.342;2023-07-31T02:28:31;16.00;99.90
33825;DHT22;20127;48.962;8.342;2023-07-31T02:31:33;15.90;99.90
33825;DHT22;20127;48.962;8.342;2023-07-31T02:34:35;15.90;99.90
33825;DHT22;20127;48.962;8.342;2023-07-31T02:37:37;15.90;99.90
33825;DHT22;20127;48.962;8.342;2023-07-31T02:40:39;16.00;99.90
33825;DHT22;20127;48.962;8.342;2023-07-31T02:43:42;15.90;99.90
33825;DHT22;20127;48.962;8.342;2023-07-31T02:46:44;15.90;99.90
33825;DHT22;20127;48.962;8.342;2023-07-31T02:49:46;16.00;99.90
33825;DHT22;20127;48.962;8.342;2023-07-31T02:52:48;16.00;99.90
33825;DHT22;20127;48.962;8.342;2023-07-31T02:55:50;16.00;99.90
33825;DHT22;20127;48.962;8.342;2023-07-31T02:58:53;16.00;99.90
33825;DHT22;20127;48.962;8.342;2023-07-31T03:01:54;16.00;99.90
33825;DHT22;20127;48.962;8.342;2023-07-31T03:04:56;16.00;99.90
33825;DHT22;20127;48.962;8.342;2023-07-31T03:07:58;16.10;99.90
33825;DHT22;20127;48.962;8.342;2023-07-31T03:11:00;16.10;99.90
33825;DHT22;20127;48.962;8.342;2023-07-31T03:14:03;16.10;99.90
33825;DHT22;20127;48.962;8.342;2023-07-31T03:17:05;16.10;99.90
33825;DHT22;20127;48.962;8.342;2023-07-31T03:20:08;16.20;99.90
33825;DHT22;20127;48.962;8.342;2023-07-31T03:23:10;16.20;99.90
33825;DHT22;20127;48.962;8.342;2023-07-31T03:26:11;16.40;99.90
33825;DHT22;20127;48.962;8.342;2023-07-31T03:29:15;16.30;99.90
33825;DHT22;20127;48.962;8.342;2023-07-31T03:32:17;16.30;99.90
33825;DHT22;20127;48.962;8.342;2023-07-31T03:35:19;16.30;99.90
33825;DHT22;20127;48.962;8.342;2023-07-31T03:38:20;16.30;99.90
33825;DHT22;20127;48.962;8.342;2023-07-31T03:41:22;16.30;99.90
33825;DHT22;20127;48.962;8.342;2023-07-31T03:44:25;16.30;99.90
33825;DHT22;20127;48.962;8.342;2023-07-31T03:47:27;16.30;99.90
33825;DHT22;20127;48.962;8.342;2023-07-31T03:50:29;16.30;99.90
33825;DHT22;20127;48.962;8.342;2023-07-31T03:53:30;16.30;99.90
33825;DHT22;20127;48.962;8.342;2023-07-31T03:56:32;16.30;99.90
33825;DHT22;20127;48.962;8.342;2023-07-31T03:59:35;16.30;99.90
33825;DHT22;20127;48.962;8.342;2023-07-31T04:02:39;16.30;99.90
33825;DHT22;20127;48.962;8.342;2023-07-31T04:05:40;16.30;99.90
33825;DHT22;20127;48.962;8.342;2023-07-31T04:08:42;16.40;99.90
33825;DHT22;20127;48.962;8.342;2023-07-31T04:11:44;16.40;99.90
33825;DHT22;20127;48.962;8.342;2023-07-31T04:14:47;16.40;99.90
33825;DHT22;20127;48.962;8.342;2023-07-31T04:17:48;16.40;99.90
33825;DHT22;20127;48.962;8.342;2023-07-31T04:20:50;16.50;99.90
33825;DHT22;20127;48.962;8.342;2023-07-31T04:23:52;16.50;99.90
33825;DHT22;20127;48.962;8.342;2023-07-31T04:26:56;16.50;99.90
33825;DHT22;20127;48.962;8.342;2023-07-31T04:29:59;16.60;99.90
33825;DHT22;20127;48.962;8.342;2023-07-31T04:33:00;16.60;99.90
33825;DHT22;20127;48.962;8.342;2023-07-31T04:36:02;16.60;99.90
33825;DHT22;20127;48.962;8.342;2023-07-31T04:39:04;16.60;99.90
33825;DHT22;20127;48.962;8.342;2023-07-31T04:42:06;16.60;99.90
33825;DHT22;20127;48.962;8.342;2023-07-31T04:45:09;16.60;99.90
33825;DHT22;20127;48.962;8.342;2023-07-31T04:48:11;16.70;99.90
33825;DHT22;20127;48.962;8.342;2023-07-31T04:51:13;16.70;99.90
33825;DHT22;20127;48.962;8.342;2023-07-31T04:54:15;16.80;99.90
33825;DHT22;20127;48.962;8.342;2023-07-31T04:57:16;16.80;99.90
33825;DHT22;20127;48.962;8.342;2023-07-31T05:00:19;16.90;99.90
33825;DHT22;20127;48.962;8.342;2023-07-31T05:03:21;17.00;99.90
33825;DHT22;20127;48.962;8.342;2023-07-31T05:06:23;17.10;99.90
33825;DHT22;20127;48.962;8.342;2023-07-31T05:09:25;17.10;99.90
33825;DHT22;20127;48.962;8.342;2023-07-31T05:12:26;17.20;99.90
33825;DHT22;20127;48.962;8.342;2023-07-31T05:15:29;17.30;99.90
33825;DHT22;20127;48.962;8.342;2023-07-31T05:18:31;17.40;99.90
33825;DHT22;20127;48.962;8.342;2023-07-31T05:21:33;17.50;99.90
33825;DHT22;20127;48.962;8.342;2023-07-31T05:24:34;17.60;99.90
33825;DHT22;20127;48.962;8.342;2023-07-31T05:27:36;17.80;99.90
33825;DHT22;20127;48.962;8.342;2023-07-31T05:30:39;17.80;99.90
33825;DHT22;20127;48.962;8.342;2023-07-31T05:33:41;18.10;99.90
33825;DHT22;20127;48.962;8.342;2023-07-31T05:36:42;18.20;99.90
33825;DHT22;20127;48.962;8.342;2023-07-31T05:39:44;18.20;99.90
33825;DHT22;20127;48.962;8.342;2023-07-31T05:42:46;18.30;99.90
33825;DHT22;20127;48.962;8.342;2023-07-31T05:45:49;18.50;99.90
33825;DHT22;20127;48.962;8.342;2023-07-31T05:48:51;18.60;99.90
33825;DHT22;20127;48.962;8.342;2023-07-31T05:51:52;18.80;99.90
33825;DHT22;20127;48.962;8.342;2023-07-31T05:54:54;18.80;99.90
33825;DHT22;20127;48.962;8.342;2023-07-31T05:57:56;19.00;99.90
33825;DHT22;20127;48.962;8.342;2023-07-31T06:00:59;19.00;99.90
33825;DHT22;20127;48.962;8.342;2023-07-31T06:04:00;19.00;99.90
33825;DHT22;20127;48.962;8.342;2023-07-31T06:07:04;19.00;99.90
33825;DHT22;20127;48.962;8.342;2023-07-31T06:10:06;19.10;99.70
33825;DHT22;20127;48.962;8.342;2023-07-31T06:13:08;19.10;99.40
33825;DHT22;20127;48.962;8.342;2023-07-31T06:16:12;19.30;99.30
33825;DHT22;20127;48.962;8.342;2023-07-31T06:19:13;19.30;98.90
33825;DHT22;20127;48.962;8.342;2023-07-31T06:22:15;19.40;98.80
33825;DHT22;20127;48.962;8.342;2023-07-31T06:25:17;19.40;98.60
33825;DHT22;20127;48.962;8.342;2023-07-31T06:28:19;19.50;98.50
33825;DHT22;20127;48.962;8.342;2023-07-31T06:31:22;19.60;98.20
33825;DHT22;20127;48.962;8.342;2023-07-31T06:34:23;19.70;98.10
33825;DHT22;20127;48.962;8.342;2023-07-31T06:37:25;19.90;98.00
33825;DHT22;20127;48.962;8.342;2023-07-31T06:40:27;20.00;97.80
33825;DHT22;20127;48.962;8.342;2023-07-31T06:43:28;20.30;97.70
33825;DHT22;20127;48.962;8.342;2023-07-31T06:46:31;20.50;97.30
33825;DHT22;20127;48.962;8.342;2023-07-31T06:49:33;20.70;96.90
33825;DHT22;20127;48.962;8.342;2023-07-31T06:52:35;20.70;96.20
33825;DHT22;20127;48.962;8.342;2023-07-31T06:55:37;20.70;96.20
33825;DHT22;20127;48.962;8.342;2023-07-31T06:58:38;20.60;95.90
33825;DHT22;20127;48.962;8.342;2023-07-31T07:01:41;20.50;95.90
33825;DHT22;20127;48.962;8.342;2023-07-31T07:04:43;20.50;95.90
33825;DHT22;20127;48.962;8.342;2023-07-31T07:07:45;20.40;95.80
33825;DHT22;20127;48.962;8.342;2023-07-31T07:10:47;20.30;95.70
33825;DHT22;20127;48.962;8.342;2023-07-31T07:13:48;20.20;95.70
33825;DHT22;20127;48.962;8.342;2023-07-31T07:16:52;20.20;95.70
33825;DHT22;20127;48.962;8.342;2023-07-31T07:19:54;20.20;95.70
33825;DHT22;20127;48.962;8.342;2023-07-31T07:22:56;20.40;95.60
33825;DHT22;20127;48.962;8.342;2023-07-31T07:25:58;20.40;95.30
33825;DHT22;20127;48.962;8.342;2023-07-31T07:28:59;20.60;95.30
33825;DHT22;20127;48.962;8.342;2023-07-31T07:32:04;20.70;95.10
33825;DHT22;20127;48.962;8.342;2023-07-31T07:35:07;20.80;94.90
33825;DHT22;20127;48.962;8.342;2023-07-31T07:38:08;21.00;94.50
33825;DHT22;20127;48.962;8.342;2023-07-31T07:41:10;20.90;94.20
33825;DHT22;20127;48.962;8.342;2023-07-31T07:44:12;21.00;94.10
33825;DHT22;20127;48.962;8.342;2023-07-31T07:47:15;21.00;93.80
33825;DHT22;20127;48.962;8.342;2023-07-31T07:50:17;21.10;93.80
33825;DHT22;20127;48.962;8.342;2023-07-31T07:53:19;21.20;93.50
33825;DHT22;20127;48.962;8.342;2023-07-31T07:56:21;21.30;93.00
33825;DHT22;20127;48.962;8.342;2023-07-31T07:59:23;21.40;93.20
33825;DHT22;20127;48.962;8.342;2023-07-31T08:02:26;21.60;92.90
33825;DHT22;20127;48.962;8.342;2023-07-31T08:05:28;21.70;92.70
33825;DHT22;20127;48.962;8.342;2023-07-31T08:08:29;21.80;92.30
33825;DHT22;20127;48.962;8.342;2023-07-31T08:11:31;21.90;92.10
33825;DHT22;20127;48.962;8.342;2023-07-31T08:14:33;21.90;91.50
33825;DHT22;20127;48.962;8.342;2023-07-31T08:17:37;22.00;91.60
33825;DHT22;20127;48.962;8.342;2023-07-31T08:20:39;22.00;91.40
33825;DHT22;20127;48.962;8.342;2023-07-31T08:23:40;22.00;91.20
33825;DHT22;20127;48.962;8.342;2023-07-31T08:26:42;22.00;91.20
33825;DHT22;20127;48.962;8.342;2023-07-31T08:29:44;22.00;91.00
33825;DHT22;20127;48.962;8.342;2023-07-31T08:32:47;22.00;91.20
33825;DHT22;20127;48.962;8.342;2023-07-31T08:35:49;22.20;91.00
33825;DHT22;20127;48.962;8.342;2023-07-31T08:38:50;22.50;90.60
33825;DHT22;20127;48.962;8.342;2023-07-31T08:41:58;22.80;90.00
33825;DHT22;20127;48.962;8.342;2023-07-31T08:45:00;23.00;89.90
33825;DHT22;20127;48.962;8.342;2023-07-31T08:48:04;23.60;88.90
33825;DHT22;20127;48.962;8.342;2023-07-31T08:51:07;23.80;87.20
33825;DHT22;20127;48.962;8.342;2023-07-31T08:54:08;24.10;87.30
33825;DHT22;20127;48.962;8.342;2023-07-31T08:57:11;24.40;85.10
33825;DHT22;20127;48.962;8.342;2023-07-31T09:00:14;24.20;82.80
33825;DHT22;20127;48.962;8.342;2023-07-31T09:03:18;24.00;83.30
33825;DHT22;20127;48.962;8.342;2023-07-31T09:06:20;24.30;83.10
33825;DHT22;20127;48.962;8.342;2023-07-31T09:09:24;25.20;82.50
33825;DHT22;20127;48.962;8.342;2023-07-31T09:12:26;25.80;80.30
33825;DHT22;20127;48.962;8.342;2023-07-31T09:15:28;26.10;78.00
33825;DHT22;20127;48.962;8.342;2023-07-31T09:18:32;26.10;76.40
33825;DHT22;20127;48.962;8.342;2023-07-31T09:21:48;26.00;76.30
33825;DHT22;20127;48.962;8.342;2023-07-31T09:24:50;26.10;74.30
33825;DHT22;20127;48.962;8.342;2023-07-31T09:27:58;25.90;74.80
33825;DHT22;20127;48.962;8.342;2023-07-31T09:31:01;26.00;73.00
33825;DHT22;20127;48.962;8.342;2023-07-31T09:34:05;25.70;72.60
33825;DHT22;20127;48.962;8.342;2023-07-31T09:37:11;25.70;73.60
33825;DHT22;20127;48.962;8.342;2023-07-31T09:40:25;25.70;73.30
33825;DHT22;20127;48.962;8.342;2023-07-31T09:43:27;25.80;72.50
33825;DHT22;20127;48.962;8.342;2023-07-31T09:46:30;26.00;72.80
33825;DHT22;20127;48.962;8.342;2023-07-31T09:49:33;26.20;71.70
33825;DHT22;20127;48.962;8.342;2023-07-31T09:52:38;26.40;71.60
33825;DHT22;20127;48.962;8.342;2023-07-31T09:55:41;26.30;70.50
33825;DHT22;20127;48.962;8.342;2023-07-31T09:58:43;26.20;70.80
33825;DHT22;20127;48.962;8.342;2023-07-31T10:01:46;26.20;70.30
33825;DHT22;20127;48.962;8.342;2023-07-31T10:04:50;26.00;70.60
33825;DHT22;20127;48.962;8.342;2023-07-31T10:07:54;26.00;71.50
33825;DHT22;20127;48.962;8.342;2023-07-31T10:10:59;25.70;70.10
33825;DHT22;20127;48.962;8.342;2023-07-31T10:14:02;25.40;70.50
33825;DHT22;20127;48.962;8.342;2023-07-31T10:17:05;25.40;70.50
33825;DHT22;20127;48.962;8.342;2023-07-31T10:20:10;25.30;71.10
33825;DHT22;20127;48.962;8.342;2023-07-31T10:23:13;25.50;70.70
33825;DHT22;20127;48.962;8.342;2023-07-31T10:26:16;25.80;70.50
33825;DHT22;20127;48.962;8.342;2023-07-31T10:29:19;25.80;69.10
33825;DHT22;20127;48.962;8.342;2023-07-31T10:32:22;25.60;69.20
33825;DHT22;20127;48.962;8.342;2023-07-31T10:35:25;25.40;69.80
33825;DHT22;20127;48.962;8.342;2023-07-31T10:38:29;25.20;70.60
33825;DHT22;20127;48.962;8.342;2023-07-31T10:41:31;25.30;71.00
33825;DHT22;20127;48.962;8.342;2023-07-31T10:44:34;25.70;71.40
33825;DHT22;20127;48.962;8.342;2023-07-31T10:47:42;26.00;69.30
33825;DHT22;20127;48.962;8.342;2023-07-31T10:50:49;25.70;69.70
33825;DHT22;20127;48.962;8.342;2023-07-31T10:54:10;25.50;69.80
33825;DHT22;20127;48.962;8.342;2023-07-31T10:57:22;25.40;70.30
33825;DHT22;20127;48.962;8.342;2023-07-31T11:00:27;25.30;69.80
33825;DHT22;20127;48.962;8.342;2023-07-31T11:03:43;25.30;70.00
33825;DHT22;20127;48.962;8.342;2023-07-31T11:06:55;25.60;70.10
33825;DHT22;20127;48.962;8.342;2023-07-31T11:09:57;25.90;69.40
33825;DHT22;20127;48.962;8.342;2023-07-31T11:12:59;26.00;69.20
33825;DHT22;20127;48.962;8.342;2023-07-31T11:16:01;26.30;69.10
33825;DHT22;20127;48.962;8.342;2023-07-31T11:19:08;26.60;68.70
33825;DHT22;20127;48.962;8.342;2023-07-31T11:22:11;26.70;67.00
33825;DHT22;20127;48.962;8.342;2023-07-31T11:25:14;26.50;66.80
33825;DHT22;20127;48.962;8.342;2023-07-31T11:28:17;26.70;66.70
33825;DHT22;20127;48.962;8.342;2023-07-31T11:31:19;26.70;66.90
33825;DHT22;20127;48.962;8.342;2023-07-31T11:34:21;26.40;66.60
33825;DHT22;20127;48.962;8.342;2023-07-31T11:37:38;26.30;66.80
33825;DHT22;20127;48.962;8.342;2023-07-31T11:40:44;26.20;66.90
33825;DHT22;20127;48.962;8.342;2023-07-31T11:43:46;26.10;67.20
33825;DHT22;20127;48.962;8.342;2023-07-31T11:46:48;26.10;67.90
33825;DHT22;20127;48.962;8.342;2023-07-31T11:49:51;26.30;67.20
33825;DHT22;20127;48.962;8.342;2023-07-31T11:52:58;26.30;67.30
33825;DHT22;20127;48.962;8.342;2023-07-31T11:56:01;26.30;67.60
33825;DHT22;20127;48.962;8.342;2023-07-31T11:59:04;26.20;67.50
33825;DHT22;20127;48.962;8.342;2023-07-31T12:02:09;26.20;68.00
33825;DHT22;20127;48.962;8.342;2023-07-31T12:05:11;26.40;67.90
33825;DHT22;20127;48.962;8.342;2023-07-31T12:08:15;26.50;67.70
33825;DHT22;20127;48.962;8.342;2023-07-31T12:11:16;26.90;67.30
33825;DHT22;20127;48.962;8.342;2023-07-31T12:14:24;27.20;66.00
33825;DHT22;20127;48.962;8.342;2023-07-31T12:17:26;27.60;65.90
33825;DHT22;20127;48.962;8.342;2023-07-31T12:20:30;27.90;64.50
33825;DHT22;20127;48.962;8.342;2023-07-31T12:23:34;27.90;64.00
33825;DHT22;20127;48.962;8.342;2023-07-31T12:26:36;28.00;64.20
33825;DHT22;20127;48.962;8.342;2023-07-31T12:29:38;28.10;64.20
33825;DHT22;20127;48.962;8.342;2023-07-31T12:32:40;28.10;63.80
33825;DHT22;20127;48.962;8.342;2023-07-31T12:35:44;27.80;63.40
33825;DHT22;20127;48.962;8.342;2023-07-31T12:38:47;28.00;63.80
33825;DHT22;20127;48.962;8.342;2023-07-31T12:41:49;28.10;63.50
33825;DHT22;20127;48.962;8.342;2023-07-31T12:44:51;28.30;63.10
33825;DHT22;20127;48.962;8.342;2023-07-31T12:47:53;27.90;62.60
33825;DHT22;20127;48.962;8.342;2023-07-31T12:50:54;27.50;63.80
33825;DHT22;20127;48.962;8.342;2023-07-31T12:53:57;27.10;63.90
33825;DHT22;20127;48.962;8.342;2023-07-31T12:56:59;26.70;64.40
33825;DHT22;20127;48.962;8.342;2023-07-31T13:00:01;26.50;65.20
33825;DHT22;20127;48.962;8.342;2023-07-31T13:03:03;26.40;66.00
33825;DHT22;20127;48.962;8.342;2023-07-31T13:06:04;26.40;66.10
33825;DHT22;20127;48.962;8.342;2023-07-31T13:09:08;26.30;66.60
33825;DHT22;20127;48.962;8.342;2023-07-31T13:12:11;26.20;66.60
33825;DHT22;20127;48.962;8.342;2023-07-31T13:15:13;26.20;67.20
33825;DHT22;20127;48.962;8.342;2023-07-31T13:18:15;26.30;67.60
33825;DHT22;20127;48.962;8.342;2023-07-31T13:21:17;26.30;67.60
33825;DHT22;20127;48.962;8.342;2023-07-31T13:24:20;26.30;68.10
33825;DHT22;20127;48.962;8.342;2023-07-31T13:27:22;26.10;68.00
33825;DHT22;20127;48.962;8.342;2023-07-31T13:30:24;26.00;68.30
33825;DHT22;20127;48.962;8.342;2023-07-31T13:33:26;26.00;67.80
33825;DHT22;20127;48.962;8.342;2023-07-31T13:36:28;25.80;68.10
33825;DHT22;20127;48.962;8.342;2023-07-31T13:39:31;25.70;68.60
33825;DHT22;20127;48.962;8.342;2023-07-31T13:42:33;25.70;68.60
33825;DHT22;20127;48.962;8.342;2023-07-31T13:45:35;25.70;68.60
33825;DHT22;20127;48.962;8.342;2023-07-31T13:48:36;25.50;68.80
33825;DHT22;20127;48.962;8.342;2023-07-31T13:51:38;25.60;69.00
33825;DHT22;20127;48.962;8.342;2023-07-31T13:54:42;25.70;69.20
33825;DHT22;20127;48.962;8.342;2023-07-31T13:57:44;25.80;69.20
33825;DHT22;20127;48.962;8.342;2023-07-31T14:00:45;25.70;68.70
33825;DHT22;20127;48.962;8.342;2023-07-31T14:03:47;25.60;69.20
33825;DHT22;20127;48.962;8.342;2023-07-31T14:06:49;25.80;69.50
33825;DHT22;20127;48.962;8.342;2023-07-31T14:09:52;25.80;69.80
33825;DHT22;20127;48.962;8.342;2023-07-31T14:12:54;25.70;69.80
33825;DHT22;20127;48.962;8.342;2023-07-31T14:15:56;25.40;69.60
33825;DHT22;20127;48.962;8.342;2023-07-31T14:18:57;25.40;70.00
33825;DHT22;20127;48.962;8.342;2023-07-31T14:21:59;25.40;70.30
33825;DHT22;20127;48.962;8.342;2023-07-31T14:25:03;25.20;70.40
33825;DHT22;20127;48.962;8.342;2023-07-31T14:28:05;25.10;70.40
33825;DHT22;20127;48.962;8.342;2023-07-31T14:31:08;25.00;70.80
33825;DHT22;20127;48.962;8.342;2023-07-31T14:34:09;24.90;71.00
33825;DHT22;20127;48.962;8.342;2023-07-31T14:37:11;24.80;71.40
33825;DHT22;20127;48.962;8.342;2023-07-31T14:40:14;24.80;71.80
33825;DHT22;20127;48.962;8.342;2023-07-31T14:43:16;24.90;72.10
33825;DHT22;20127;48.962;8.342;2023-07-31T14:46:18;25.00;72.00
33825;DHT22;20127;48.962;8.342;2023-07-31T14:49:19;25.10;72.00
33825;DHT22;20127;48.962;8.342;2023-07-31T14:52:21;25.30;72.20
33825;DHT22;20127;48.962;8.342;2023-07-31T14:55:24;25.60;72.00
33825;DHT22;20127;48.962;8.342;2023-07-31T14:58:26;25.70;71.20
33825;DHT22;20127;48.962;8.342;2023-07-31T15:01:28;25.60;71.30
33825;DHT22;20127;48.962;8.342;2023-07-31T15:04:29;25.60;71.30
33825;DHT22;20127;48.962;8.342;2023-07-31T15:07:32;25.70;71.20
33825;DHT22;20127;48.962;8.342;2023-07-31T15:10:35;25.80;71.30
33825;DHT22;20127;48.962;8.342;2023-07-31T15:13:36;26.00;71.30
33825;DHT22;20127;48.962;8.342;2023-07-31T15:16:38;26.30;71.30
33825;DHT22;20127;48.962;8.342;2023-07-31T15:19:40;26.40;71.10
33825;DHT22;20127;48.962;8.342;2023-07-31T15:22:42;26.40;70.90
33825;DHT22;20127;48.962;8.342;2023-07-31T15:25:45;26.40;70.80
33825;DHT22;20127;48.962;8.342;2023-07-31T15:28:50;26.50;70.60
33825;DHT22;20127;48.962;8.342;2023-07-31T15:31:56;26.50;70.70
33825;DHT22;20127;48.962;8.342;2023-07-31T15:34:58;26.30;70.60
33825;DHT22;20127;48.962;8.342;2023-07-31T15:38:00;26.30;71.10
33825;DHT22;20127;48.962;8.342;2023-07-31T15:41:03;26.20;71.00
33825;DHT22;20127;48.962;8.342;2023-07-31T15:44:05;26.00;71.00
33825;DHT22;20127;48.962;8.342;2023-07-31T15:47:06;25.80;71.50
33825;DHT22;20127;48.962;8.342;2023-07-31T15:50:09;25.70;71.80
33825;DHT22;20127;48.962;8.342;2023-07-31T15:53:11;25.60;72.30
33825;DHT22;20127;48.962;8.342;2023-07-31T15:56:14;25.50;72.80
33825;DHT22;20127;48.962;8.342;2023-07-31T15:59:15;25.30;73.10
33825;DHT22;20127;48.962;8.342;2023-07-31T16:02:17;25.10;75.00
33825;DHT22;20127;48.962;8.342;2023-07-31T16:05:19;24.80;76.70
33825;DHT22;20127;48.962;8.342;2023-07-31T16:08:21;24.50;79.00
33825;DHT22;20127;48.962;8.342;2023-07-31T16:11:24;24.30;80.80
33825;DHT22;20127;48.962;8.342;2023-07-31T16:14:26;24.10;82.90
33825;DHT22;20127;48.962;8.342;2023-07-31T16:17:27;24.10;84.60
33825;DHT22;20127;48.962;8.342;2023-07-31T16:20:29;24.00;85.80
33825;DHT22;20127;48.962;8.342;2023-07-31T16:23:31;24.00;86.50
33825;DHT22;20127;48.962;8.342;2023-07-31T16:26:34;23.90;87.30
33825;DHT22;20127;48.962;8.342;2023-07-31T16:29:36;23.80;87.80
33825;DHT22;20127;48.962;8.342;2023-07-31T16:32:38;23.80;88.70
33825;DHT22;20127;48.962;8.342;2023-07-31T16:35:39;23.70;88.70
33825;DHT22;20127;48.962;8.342;2023-07-31T16:38:41;23.60;89.30
33825;DHT22;20127;48.962;8.342;2023-07-31T16:41:44;23.60;90.10
33825;DHT22;20127;48.962;8.342;2023-07-31T16:44:46;23.50;90.30
33825;DHT22;20127;48.962;8.342;2023-07-31T16:47:48;23.40;90.40
33825;DHT22;20127;48.962;8.342;2023-07-31T16:50:49;23.20;90.70
33825;DHT22;20127;48.962;8.342;2023-07-31T16:53:51;23.10;91.10
33825;DHT22;20127;48.962;8.342;2023-07-31T16:56:56;23.00;91.40
33825;DHT22;20127;48.962;8.342;2023-07-31T16:59:57;22.90;92.00
33825;DHT22;20127;48.962;8.342;2023-07-31T17:02:59;22.80;92.40
33825;DHT22;20127;48.962;8.342;2023-07-31T17:06:01;22.70;92.70
33825;DHT22;20127;48.962;8.342;2023-07-31T17:09:03;22.60;93.40
33825;DHT22;20127;48.962;8.342;2023-07-31T17:12:06;22.60;93.90
33825;DHT22;20127;48.962;8.342;2023-07-31T17:15:09;22.50;94.30
33825;DHT22;20127;48.962;8.342;2023-07-31T17:18:10;22.40;94.60
33825;DHT22;20127;48.962;8.342;2023-07-31T17:21:12;22.40;95.00
33825;DHT22;20127;48.962;8.342;2023-07-31T17:24:14;22.30;95.40
33825;DHT22;20127;48.962;8.342;2023-07-31T17:27:17;22.30;95.80
33825;DHT22;20127;48.962;8.342;2023-07-31T17:30:19;22.30;96.40
33825;DHT22;20127;48.962;8.342;2023-07-31T17:33:21;22.30;96.60
33825;DHT22;20127;48.962;8.342;2023-07-31T17:36:22;22.30;96.80
33825;DHT22;20127;48.962;8.342;2023-07-31T17:39:24;22.20;96.70
33825;DHT22;20127;48.962;8.342;2023-07-31T17:42:28;22.10;96.80
33825;DHT22;20127;48.962;8.342;2023-07-31T17:45:30;22.10;97.60
33825;DHT22;20127;48.962;8.342;2023-07-31T17:48:32;22.00;98.60
33825;DHT22;20127;48.962;8.342;2023-07-31T17:51:34;21.90;99.20
33825;DHT22;20127;48.962;8.342;2023-07-31T17:54:36;21.90;99.40
33825;DHT22;20127;48.962;8.342;2023-07-31T17:57:39;21.80;99.60
33825;DHT22;20127;48.962;8.342;2023-07-31T18:00:41;21.80;99.70
33825;DHT22;20127;48.962;8.342;2023-07-31T18:03:43;21.80;99.70
33825;DHT22;20127;48.962;8.342;2023-07-31T18:06:44;21.70;99.90
33825;DHT22;20127;48.962;8.342;2023-07-31T18:09:46;21.70;99.90
33825;DHT22;20127;48.962;8.342;2023-07-31T18:12:49;21.70;99.90
33825;DHT22;20127;48.962;8.342;2023-07-31T18:15:51;21.70;99.90
33825;DHT22;20127;48.962;8.342;2023-07-31T18:18:53;21.60;99.90
33825;DHT22;20127;48.962;8.342;2023-07-31T18:21:54;21.50;99.90
33825;DHT22;20127;48.962;8.342;2023-07-31T18:24:56;21.40;99.90
33825;DHT22;20127;48.962;8.342;2023-07-31T18:27:59;21.30;99.90
33825;DHT22;20127;48.962;8.342;2023-07-31T18:31:01;21.20;99.90
33825;DHT22;20127;48.962;8.342;2023-07-31T18:34:03;21.00;99.90
33825;DHT22;20127;48.962;8.342;2023-07-31T18:37:05;20.90;99.90
33825;DHT22;20127;48.962;8.342;2023-07-31T18:40:08;20.80;99.90
33825;DHT22;20127;48.962;8.342;2023-07-31T18:43:11;20.70;99.90
33825;DHT22;20127;48.962;8.342;2023-07-31T18:46:12;20.60;99.90
33825;DHT22;20127;48.962;8.342;2023-07-31T18:49:15;20.40;99.90
33825;DHT22;20127;48.962;8.342;2023-07-31T18:52:17;20.30;99.90
33825;DHT22;20127;48.962;8.342;2023-07-31T18:55:19;20.20;99.90
33825;DHT22;20127;48.962;8.342;2023-07-31T18:58:22;20.00;99.90
33825;DHT22;20127;48.962;8.342;2023-07-31T19:01:24;19.80;99.90
33825;DHT22;20127;48.962;8.342;2023-07-31T19:04:25;19.70;99.90
33825;DHT22;20127;48.962;8.342;2023-07-31T19:07:27;19.60;99.90
33825;DHT22;20127;48.962;8.342;2023-07-31T19:10:29;19.40;99.90
33825;DHT22;20127;48.962;8.342;2023-07-31T19:13:32;19.30;99.90